sensor_id;sensor_type;location;lat;lon;timestamp;P1;durP1;ratioP1;P2;durP2;ratioP2
75012;SDS011;63567;49.956;20.130;2024-03-22T00:01:46;25.00;;;13.93;;
75012;SDS011;63567;49.956;20.130;2024-03-22T00:04:12;25.40;;;14.45;;
75012;SDS011;63567;49.956;20.130;2024-03-22T00:06:38;24.25;;;13.35;;
75012;SDS011;63567;49.956;20.130;2024-03-22T00:09:04;23.92;;;13.80;;
75012;SDS011;63567;49.956;20.130;2024-03-22T00:11:29;25.75;;;15.77;;
75012;SDS011;63567;49.956;20.130;2024-03-22T00:13:54;25.97;;;14.03;;
75012;SDS011;63567;49.956;20.130;2024-03-22T00:16:20;25.80;;;13.53;;
75012;SDS011;63567;49.956;20.130;2024-03-22T00:18:45;25.63;;;15.30;;
75012;SDS011;63567;49.956;20.130;2024-03-22T00:21:10;26.37;;;14.87;;
75012;SDS011;63567;49.956;20.130;2024-03-22T00:23:35;24.03;;;15.20;;
75012;SDS011;63567;49.956;20.130;2024-03-22T00:26:01;28.73;;;15.13;;
75012;SDS011;63567;49.956;20.130;2024-03-22T00:28:26;29.43;;;16.17;;
75012;SDS011;63567;49.956;20.130;2024-03-22T00:30:51;28.37;;;15.47;;
75012;SDS011;63567;49.956;20.130;2024-03-22T00:33:16;30.03;;;17.30;;
75012;SDS011;63567;49.956;20.130;2024-03-22T00:35:42;28.70;;;17.40;;
75012;SDS011;63567;49.956;20.130;2024-03-22T00:38:07;24.70;;;15.80;;
75012;SDS011;63567;49.956;20.130;2024-03-22T00:40:33;29.47;;;16.73;;
75012;SDS011;63567;49.956;20.130;2024-03-22T00:42:58;30.85;;;18.02;;
75012;SDS011;63567;49.956;20.130;2024-03-22T00:45:23;28.17;;;16.90;;
75012;SDS011;63567;49.956;20.130;2024-03-22T00:47:48;31.50;;;19.00;;
75012;SDS011;63567;49.956;20.130;2024-03-22T00:50:14;32.27;;;18.40;;
75012;SDS011;63567;49.956;20.130;2024-03-22T00:52:39;34.17;;;19.83;;
75012;SDS011;63567;49.956;20.130;2024-03-22T00:55:04;33.93;;;19.13;;
75012;SDS011;63567;49.956;20.130;2024-03-22T00:57:30;34.55;;;18.75;;
75012;SDS011;63567;49.956;20.130;2024-03-22T00:59:55;30.95;;;17.58;;
75012;SDS011;63567;49.956;20.130;2024-03-22T01:02:21;33.60;;;18.17;;
75012;SDS011;63567;49.956;20.130;2024-03-22T01:04:47;31.35;;;18.02;;
75012;SDS011;63567;49.956;20.130;2024-03-22T01:07:12;31.73;;;18.07;;
75012;SDS011;63567;49.956;20.130;2024-03-22T01:09:38;30.73;;;18.67;;
75012;SDS011;63567;49.956;20.130;2024-03-22T01:12:03;32.40;;;18.50;;
75012;SDS011;63567;49.956;20.130;2024-03-22T01:14:28;32.42;;;19.30;;
75012;SDS011;63567;49.956;20.130;2024-03-22T01:16:54;31.20;;;19.10;;
75012;SDS011;63567;49.956;20.130;2024-03-22T01:19:20;33.45;;;19.48;;
75012;SDS011;63567;49.956;20.130;2024-03-22T01:21:46;33.70;;;20.38;;
75012;SDS011;63567;49.956;20.130;2024-03-22T01:24:11;38.88;;;21.15;;
75012;SDS011;63567;49.956;20.130;2024-03-22T01:26:36;34.13;;;21.13;;
75012;SDS011;63567;49.956;20.130;2024-03-22T01:29:02;38.30;;;23.77;;
75012;SDS011;63567;49.956;20.130;2024-03-22T01:31:27;35.53;;;20.57;;
75012;SDS011;63567;49.956;20.130;2024-03-22T01:33:52;36.07;;;21.70;;
75012;SDS011;63567;49.956;20.130;2024-03-22T01:36:18;40.47;;;23.17;;
75012;SDS011;63567;49.956;20.130;2024-03-22T01:38:43;40.43;;;22.17;;
75012;SDS011;63567;49.956;20.130;2024-03-22T01:41:08;38.53;;;21.60;;
75012;SDS011;63567;49.956;20.130;2024-03-22T01:43:33;34.17;;;21.77;;
75012;SDS011;63567;49.956;20.130;2024-03-22T01:45:59;35.43;;;22.43;;
75012;SDS011;63567;49.956;20.130;2024-03-22T01:48:24;37.03;;;22.17;;
75012;SDS011;63567;49.956;20.130;2024-03-22T01:50:50;38.83;;;22.40;;
75012;SDS011;63567;49.956;20.130;2024-03-22T01:53:15;38.53;;;23.33;;
75012;SDS011;63567;49.956;20.130;2024-03-22T01:55:42;37.20;;;23.25;;
75012;SDS011;63567;49.956;20.130;2024-03-22T01:58:07;35.00;;;23.03;;
75012;SDS011;63567;49.956;20.130;2024-03-22T02:00:33;37.80;;;21.45;;
75012;SDS011;63567;49.956;20.130;2024-03-22T02:02:58;37.57;;;21.60;;
75012;SDS011;63567;49.956;20.130;2024-03-22T02:05:24;36.23;;;23.17;;
75012;SDS011;63567;49.956;20.130;2024-03-22T02:07:49;36.13;;;20.73;;
75012;SDS011;63567;49.956;20.130;2024-03-22T02:10:14;34.70;;;21.67;;
75012;SDS011;63567;49.956;20.130;2024-03-22T02:12:41;39.28;;;23.13;;
75012;SDS011;63567;49.956;20.130;2024-03-22T02:15:07;40.05;;;22.42;;
75012;SDS011;63567;49.956;20.130;2024-03-22T02:17:33;36.83;;;21.95;;
75012;SDS011;63567;49.956;20.130;2024-03-22T02:19:59;36.22;;;21.00;;
75012;SDS011;63567;49.956;20.130;2024-03-22T02:22:25;35.15;;;20.88;;
75012;SDS011;63567;49.956;20.130;2024-03-22T02:24:51;32.80;;;20.30;;
75012;SDS011;63567;49.956;20.130;2024-03-22T02:27:16;34.57;;;20.23;;
75012;SDS011;63567;49.956;20.130;2024-03-22T02:29:42;36.70;;;21.03;;
75012;SDS011;63567;49.956;20.130;2024-03-22T02:32:07;33.57;;;20.23;;
75012;SDS011;63567;49.956;20.130;2024-03-22T02:34:35;35.67;;;21.05;;
75012;SDS011;63567;49.956;20.130;2024-03-22T02:37:00;36.83;;;21.60;;
75012;SDS011;63567;49.956;20.130;2024-03-22T02:39:26;35.10;;;20.20;;
75012;SDS011;63567;49.956;20.130;2024-03-22T02:41:51;36.63;;;21.90;;
75012;SDS011;63567;49.956;20.130;2024-03-22T02:44:16;32.83;;;20.33;;
75012;SDS011;63567;49.956;20.130;2024-03-22T02:46:42;36.17;;;21.27;;
75012;SDS011;63567;49.956;20.130;2024-03-22T02:49:07;33.40;;;20.13;;
75012;SDS011;63567;49.956;20.130;2024-03-22T02:51:32;32.78;;;20.38;;
75012;SDS011;63567;49.956;20.130;2024-03-22T02:53:57;33.17;;;20.30;;
75012;SDS011;63567;49.956;20.130;2024-03-22T02:56:23;33.90;;;20.43;;
75012;SDS011;63567;49.956;20.130;2024-03-22T02:58:51;31.07;;;19.97;;
75012;SDS011;63567;49.956;20.130;2024-03-22T03:01:16;32.95;;;20.58;;
75012;SDS011;63567;49.956;20.130;2024-03-22T03:03:42;31.27;;;19.90;;
75012;SDS011;63567;49.956;20.130;2024-03-22T03:06:07;38.97;;;21.23;;
75012;SDS011;63567;49.956;20.130;2024-03-22T03:08:33;32.72;;;20.17;;
75012;SDS011;63567;49.956;20.130;2024-03-22T03:10:58;32.90;;;19.13;;
75012;SDS011;63567;49.956;20.130;2024-03-22T03:13:24;33.63;;;20.93;;
75012;SDS011;63567;49.956;20.130;2024-03-22T03:15:49;34.47;;;20.97;;
75012;SDS011;63567;49.956;20.130;2024-03-22T03:18:14;31.43;;;20.13;;
75012;SDS011;63567;49.956;20.130;2024-03-22T03:20:39;34.17;;;20.20;;
75012;SDS011;63567;49.956;20.130;2024-03-22T03:23:05;35.93;;;20.43;;
75012;SDS011;63567;49.956;20.130;2024-03-22T03:25:30;30.07;;;19.73;;
75012;SDS011;63567;49.956;20.130;2024-03-22T03:27:55;33.50;;;22.13;;
75012;SDS011;63567;49.956;20.130;2024-03-22T03:30:20;36.30;;;20.87;;
75012;SDS011;63567;49.956;20.130;2024-03-22T03:32:46;31.50;;;20.20;;
75012;SDS011;63567;49.956;20.130;2024-03-22T03:35:11;35.60;;;21.93;;
75012;SDS011;63567;49.956;20.130;2024-03-22T03:37:36;33.87;;;20.43;;
75012;SDS011;63567;49.956;20.130;2024-03-22T03:40:03;32.65;;;20.05;;
75012;SDS011;63567;49.956;20.130;2024-03-22T03:42:29;32.47;;;20.00;;
75012;SDS011;63567;49.956;20.130;2024-03-22T03:44:54;33.35;;;20.92;;
75012;SDS011;63567;49.956;20.130;2024-03-22T03:47:20;33.67;;;21.63;;
75012;SDS011;63567;49.956;20.130;2024-03-22T03:49:45;31.70;;;21.10;;
75012;SDS011;63567;49.956;20.130;2024-03-22T03:52:11;34.53;;;20.80;;
75012;SDS011;63567;49.956;20.130;2024-03-22T03:54:36;32.80;;;20.03;;
75012;SDS011;63567;49.956;20.130;2024-03-22T03:57:01;36.90;;;21.70;;
75012;SDS011;63567;49.956;20.130;2024-03-22T03:59:27;37.43;;;22.27;;
75012;SDS011;63567;49.956;20.130;2024-03-22T04:01:52;33.37;;;21.07;;
75012;SDS011;63567;49.956;20.130;2024-03-22T04:04:17;33.77;;;20.67;;
75012;SDS011;63567;49.956;20.130;2024-03-22T04:06:43;35.40;;;20.73;;
75012;SDS011;63567;49.956;20.130;2024-03-22T04:09:09;35.85;;;20.33;;
75012;SDS011;63567;49.956;20.130;2024-03-22T04:11:34;34.17;;;20.92;;
75012;SDS011;63567;49.956;20.130;2024-03-22T04:14:00;34.37;;;21.37;;
75012;SDS011;63567;49.956;20.130;2024-03-22T04:16:25;36.63;;;22.43;;
75012;SDS011;63567;49.956;20.130;2024-03-22T04:18:50;35.40;;;20.93;;
75012;SDS011;63567;49.956;20.130;2024-03-22T04:21:16;34.23;;;23.03;;
75012;SDS011;63567;49.956;20.130;2024-03-22T04:23:41;34.13;;;21.60;;
75012;SDS011;63567;49.956;20.130;2024-03-22T04:26:06;36.23;;;22.50;;
75012;SDS011;63567;49.956;20.130;2024-03-22T04:28:31;33.97;;;21.20;;
75012;SDS011;63567;49.956;20.130;2024-03-22T04:31:03;34.60;;;21.07;;
75012;SDS011;63567;49.956;20.130;2024-03-22T04:33:31;34.72;;;21.30;;
75012;SDS011;63567;49.956;20.130;2024-03-22T04:35:57;36.20;;;20.88;;
75012;SDS011;63567;49.956;20.130;2024-03-22T04:38:24;33.03;;;20.92;;
75012;SDS011;63567;49.956;20.130;2024-03-22T04:40:49;35.97;;;21.85;;
75012;SDS011;63567;49.956;20.130;2024-03-22T04:43:15;33.25;;;21.67;;
75012;SDS011;63567;49.956;20.130;2024-03-22T04:45:42;35.17;;;20.38;;
75012;SDS011;63567;49.956;20.130;2024-03-22T04:48:08;32.88;;;20.10;;
75012;SDS011;63567;49.956;20.130;2024-03-22T04:50:33;34.63;;;21.17;;
75012;SDS011;63567;49.956;20.130;2024-03-22T04:52:59;32.17;;;19.97;;
75012;SDS011;63567;49.956;20.130;2024-03-22T04:55:24;35.55;;;22.30;;
75012;SDS011;63567;49.956;20.130;2024-03-22T04:57:51;35.23;;;21.47;;
75012;SDS011;63567;49.956;20.130;2024-03-22T05:00:16;34.17;;;20.67;;
75012;SDS011;63567;49.956;20.130;2024-03-22T05:02:42;33.58;;;19.90;;
75012;SDS011;63567;49.956;20.130;2024-03-22T05:05:07;31.77;;;20.80;;
75012;SDS011;63567;49.956;20.130;2024-03-22T05:07:33;33.40;;;21.23;;
75012;SDS011;63567;49.956;20.130;2024-03-22T05:09:58;33.47;;;21.20;;
75012;SDS011;63567;49.956;20.130;2024-03-22T05:12:23;36.10;;;21.33;;
75012;SDS011;63567;49.956;20.130;2024-03-22T05:14:49;31.47;;;20.17;;
75012;SDS011;63567;49.956;20.130;2024-03-22T05:17:14;34.00;;;20.83;;
75012;SDS011;63567;49.956;20.130;2024-03-22T05:19:39;33.17;;;21.33;;
75012;SDS011;63567;49.956;20.130;2024-03-22T05:22:04;33.97;;;20.43;;
75012;SDS011;63567;49.956;20.130;2024-03-22T05:24:31;29.90;;;19.65;;
75012;SDS011;63567;49.956;20.130;2024-03-22T05:26:56;31.17;;;19.07;;
75012;SDS011;63567;49.956;20.130;2024-03-22T05:29:21;31.50;;;19.63;;
75012;SDS011;63567;49.956;20.130;2024-03-22T05:31:47;33.60;;;21.63;;
75012;SDS011;63567;49.956;20.130;2024-03-22T05:34:14;28.60;;;19.98;;
75012;SDS011;63567;49.956;20.130;2024-03-22T05:36:40;32.58;;;21.35;;
75012;SDS011;63567;49.956;20.130;2024-03-22T05:39:05;30.55;;;19.70;;
75012;SDS011;63567;49.956;20.130;2024-03-22T05:41:30;33.63;;;19.40;;
75012;SDS011;63567;49.956;20.130;2024-03-22T05:43:56;32.37;;;20.10;;
75012;SDS011;63567;49.956;20.130;2024-03-22T05:46:21;30.47;;;19.37;;
75012;SDS011;63567;49.956;20.130;2024-03-22T05:48:46;29.37;;;18.53;;
75012;SDS011;63567;49.956;20.130;2024-03-22T05:51:13;29.13;;;19.05;;
75012;SDS011;63567;49.956;20.130;2024-03-22T05:53:38;32.80;;;19.48;;
75012;SDS011;63567;49.956;20.130;2024-03-22T05:56:04;30.20;;;20.80;;
75012;SDS011;63567;49.956;20.130;2024-03-22T05:58:29;29.27;;;19.13;;
75012;SDS011;63567;49.956;20.130;2024-03-22T06:00:55;29.50;;;20.00;;
75012;SDS011;63567;49.956;20.130;2024-03-22T06:03:20;27.90;;;17.83;;
75012;SDS011;63567;49.956;20.130;2024-03-22T06:05:46;29.30;;;18.23;;
75012;SDS011;63567;49.956;20.130;2024-03-22T06:08:11;26.43;;;15.67;;
75012;SDS011;63567;49.956;20.130;2024-03-22T06:10:36;28.63;;;17.50;;
75012;SDS011;63567;49.956;20.130;2024-03-22T06:13:01;25.37;;;16.67;;
75012;SDS011;63567;49.956;20.130;2024-03-22T06:15:28;30.90;;;20.00;;
75012;SDS011;63567;49.956;20.130;2024-03-22T06:17:53;29.42;;;18.30;;
75012;SDS011;63567;49.956;20.130;2024-03-22T06:20:18;28.33;;;17.53;;
75012;SDS011;63567;49.956;20.130;2024-03-22T06:22:43;29.73;;;17.73;;
75012;SDS011;63567;49.956;20.130;2024-03-22T06:25:09;26.73;;;17.40;;
75012;SDS011;63567;49.956;20.130;2024-03-22T06:27:34;27.00;;;16.90;;
75012;SDS011;63567;49.956;20.130;2024-03-22T06:29:59;26.73;;;17.67;;
75012;SDS011;63567;49.956;20.130;2024-03-22T06:32:24;30.67;;;17.20;;
75012;SDS011;63567;49.956;20.130;2024-03-22T06:34:50;30.00;;;17.20;;
75012;SDS011;63567;49.956;20.130;2024-03-22T06:37:15;28.27;;;16.63;;
75012;SDS011;63567;49.956;20.130;2024-03-22T06:39:40;25.20;;;16.57;;
75012;SDS011;63567;49.956;20.130;2024-03-22T06:42:05;27.00;;;18.60;;
75012;SDS011;63567;49.956;20.130;2024-03-22T06:44:31;26.03;;;17.30;;
75012;SDS011;63567;49.956;20.130;2024-03-22T06:46:56;26.67;;;18.45;;
75012;SDS011;63567;49.956;20.130;2024-03-22T06:49:22;26.90;;;16.83;;
75012;SDS011;63567;49.956;20.130;2024-03-22T06:51:47;28.33;;;17.10;;
75012;SDS011;63567;49.956;20.130;2024-03-22T06:54:12;26.67;;;17.20;;
75012;SDS011;63567;49.956;20.130;2024-03-22T06:56:37;28.77;;;17.50;;
75012;SDS011;63567;49.956;20.130;2024-03-22T06:59:03;26.03;;;17.00;;
75012;SDS011;63567;49.956;20.130;2024-03-22T07:01:28;29.40;;;17.90;;
75012;SDS011;63567;49.956;20.130;2024-03-22T07:03:53;28.23;;;19.63;;
75012;SDS011;63567;49.956;20.130;2024-03-22T07:06:18;25.93;;;16.63;;
75012;SDS011;63567;49.956;20.130;2024-03-22T07:08:44;28.00;;;17.07;;
75012;SDS011;63567;49.956;20.130;2024-03-22T07:11:09;27.67;;;17.03;;
75012;SDS011;63567;49.956;20.130;2024-03-22T07:13:34;27.87;;;17.87;;
75012;SDS011;63567;49.956;20.130;2024-03-22T07:16:00;27.88;;;18.02;;
75012;SDS011;63567;49.956;20.130;2024-03-22T07:18:25;28.70;;;17.80;;
75012;SDS011;63567;49.956;20.130;2024-03-22T07:20:51;28.60;;;17.45;;
75012;SDS011;63567;49.956;20.130;2024-03-22T07:23:16;29.37;;;17.73;;
75012;SDS011;63567;49.956;20.130;2024-03-22T07:25:41;26.63;;;16.90;;
75012;SDS011;63567;49.956;20.130;2024-03-22T07:28:13;25.80;;;17.05;;
75012;SDS011;63567;49.956;20.130;2024-03-22T07:30:39;27.70;;;17.50;;
75012;SDS011;63567;49.956;20.130;2024-03-22T07:33:04;28.77;;;17.30;;
75012;SDS011;63567;49.956;20.130;2024-03-22T07:35:29;25.77;;;16.50;;
75012;SDS011;63567;49.956;20.130;2024-03-22T07:37:56;28.13;;;17.55;;
75012;SDS011;63567;49.956;20.130;2024-03-22T07:40:21;26.42;;;16.40;;
75012;SDS011;63567;49.956;20.130;2024-03-22T07:42:47;27.87;;;16.30;;
75012;SDS011;63567;49.956;20.130;2024-03-22T07:45:12;28.37;;;17.83;;
75012;SDS011;63567;49.956;20.130;2024-03-22T07:47:37;29.83;;;17.83;;
75012;SDS011;63567;49.956;20.130;2024-03-22T07:50:03;28.63;;;17.35;;
75012;SDS011;63567;49.956;20.130;2024-03-22T07:52:29;29.23;;;17.60;;
75012;SDS011;63567;49.956;20.130;2024-03-22T07:54:54;28.03;;;17.27;;
75012;SDS011;63567;49.956;20.130;2024-03-22T07:57:19;30.42;;;18.05;;
75012;SDS011;63567;49.956;20.130;2024-03-22T07:59:45;25.52;;;16.60;;
75012;SDS011;63567;49.956;20.130;2024-03-22T08:02:10;29.00;;;18.67;;
75012;SDS011;63567;49.956;20.130;2024-03-22T08:04:36;28.00;;;16.93;;
75012;SDS011;63567;49.956;20.130;2024-03-22T08:07:01;29.07;;;17.07;;
75012;SDS011;63567;49.956;20.130;2024-03-22T08:09:26;28.27;;;18.03;;
75012;SDS011;63567;49.956;20.130;2024-03-22T08:11:51;28.40;;;17.13;;
75012;SDS011;63567;49.956;20.130;2024-03-22T08:14:17;27.20;;;16.73;;
75012;SDS011;63567;49.956;20.130;2024-03-22T08:16:42;27.47;;;16.87;;
75012;SDS011;63567;49.956;20.130;2024-03-22T08:19:07;28.23;;;16.80;;
75012;SDS011;63567;49.956;20.130;2024-03-22T08:21:32;27.77;;;17.40;;
75012;SDS011;63567;49.956;20.130;2024-03-22T08:23:58;27.67;;;17.07;;
75012;SDS011;63567;49.956;20.130;2024-03-22T08:26:23;28.00;;;17.03;;
75012;SDS011;63567;49.956;20.130;2024-03-22T08:28:48;28.40;;;17.17;;
75012;SDS011;63567;49.956;20.130;2024-03-22T08:31:14;29.08;;;18.50;;
75012;SDS011;63567;49.956;20.130;2024-03-22T08:33:39;27.67;;;17.38;;
75012;SDS011;63567;49.956;20.130;2024-03-22T08:36:05;29.53;;;17.30;;
75012;SDS011;63567;49.956;20.130;2024-03-22T08:38:30;26.73;;;16.73;;
75012;SDS011;63567;49.956;20.130;2024-03-22T08:40:55;29.07;;;17.70;;
75012;SDS011;63567;49.956;20.130;2024-03-22T08:43:21;30.30;;;18.17;;
75012;SDS011;63567;49.956;20.130;2024-03-22T08:45:47;29.13;;;17.77;;
75012;SDS011;63567;49.956;20.130;2024-03-22T08:48:13;30.73;;;17.93;;
75012;SDS011;63567;49.956;20.130;2024-03-22T08:50:38;29.37;;;17.43;;
75012;SDS011;63567;49.956;20.130;2024-03-22T08:53:03;26.87;;;19.07;;
75012;SDS011;63567;49.956;20.130;2024-03-22T08:55:29;31.52;;;19.33;;
75012;SDS011;63567;49.956;20.130;2024-03-22T08:57:55;30.15;;;18.42;;
75012;SDS011;63567;49.956;20.130;2024-03-22T09:00:20;29.00;;;18.17;;
75012;SDS011;63567;49.956;20.130;2024-03-22T09:02:46;27.93;;;17.87;;
75012;SDS011;63567;49.956;20.130;2024-03-22T09:05:12;27.27;;;17.13;;
75012;SDS011;63567;49.956;20.130;2024-03-22T09:07:37;27.30;;;17.10;;
75012;SDS011;63567;49.956;20.130;2024-03-22T09:10:03;28.40;;;17.03;;
75012;SDS011;63567;49.956;20.130;2024-03-22T09:12:28;28.48;;;17.95;;
75012;SDS011;63567;49.956;20.130;2024-03-22T09:14:53;29.60;;;16.60;;
75012;SDS011;63567;49.956;20.130;2024-03-22T09:17:19;28.93;;;16.50;;
75012;SDS011;63567;49.956;20.130;2024-03-22T09:19:44;26.90;;;16.67;;
75012;SDS011;63567;49.956;20.130;2024-03-22T09:22:09;24.43;;;16.63;;
75012;SDS011;63567;49.956;20.130;2024-03-22T09:24:34;25.80;;;15.77;;
75012;SDS011;63567;49.956;20.130;2024-03-22T09:27:00;24.63;;;15.53;;
75012;SDS011;63567;49.956;20.130;2024-03-22T09:29:25;24.97;;;15.03;;
75012;SDS011;63567;49.956;20.130;2024-03-22T09:31:50;24.07;;;15.47;;
75012;SDS011;63567;49.956;20.130;2024-03-22T09:34:16;23.52;;;14.60;;
75012;SDS011;63567;49.956;20.130;2024-03-22T09:36:41;20.48;;;12.90;;
75012;SDS011;63567;49.956;20.130;2024-03-22T09:39:07;21.88;;;13.02;;
75012;SDS011;63567;49.956;20.130;2024-03-22T09:41:33;19.27;;;11.38;;
75012;SDS011;63567;49.956;20.130;2024-03-22T09:44:04;18.67;;;11.20;;
75012;SDS011;63567;49.956;20.130;2024-03-22T09:46:31;17.45;;;11.43;;
75012;SDS011;63567;49.956;20.130;2024-03-22T09:48:57;16.63;;;10.40;;
75012;SDS011;63567;49.956;20.130;2024-03-22T09:51:24;16.98;;;9.90;;
75012;SDS011;63567;49.956;20.130;2024-03-22T09:53:50;16.07;;;9.00;;
75012;SDS011;63567;49.956;20.130;2024-03-22T09:56:17;16.65;;;9.68;;
75012;SDS011;63567;49.956;20.130;2024-03-22T09:58:45;16.65;;;9.38;;
75012;SDS011;63567;49.956;20.130;2024-03-22T10:01:10;15.23;;;9.30;;
75012;SDS011;63567;49.956;20.130;2024-03-22T10:03:37;14.60;;;9.68;;
75012;SDS011;63567;49.956;20.130;2024-03-22T10:06:02;15.20;;;9.50;;
75012;SDS011;63567;49.956;20.130;2024-03-22T10:08:28;15.80;;;9.95;;
75012;SDS011;63567;49.956;20.130;2024-03-22T10:10:53;15.23;;;8.43;;
75012;SDS011;63567;49.956;20.130;2024-03-22T10:13:18;16.52;;;9.55;;
75012;SDS011;63567;49.956;20.130;2024-03-22T10:15:43;15.63;;;9.07;;
75012;SDS011;63567;49.956;20.130;2024-03-22T10:18:09;15.83;;;9.33;;
75012;SDS011;63567;49.956;20.130;2024-03-22T10:20:35;13.63;;;8.40;;
75012;SDS011;63567;49.956;20.130;2024-03-22T10:23:00;15.47;;;9.07;;
75012;SDS011;63567;49.956;20.130;2024-03-22T10:25:26;15.13;;;8.90;;
75012;SDS011;63567;49.956;20.130;2024-03-22T10:27:53;14.30;;;8.82;;
75012;SDS011;63567;49.956;20.130;2024-03-22T10:30:19;16.38;;;9.38;;
75012;SDS011;63567;49.956;20.130;2024-03-22T10:32:44;14.80;;;9.73;;
75012;SDS011;63567;49.956;20.130;2024-03-22T10:35:11;16.07;;;9.47;;
75012;SDS011;63567;49.956;20.130;2024-03-22T10:37:38;17.90;;;10.63;;
75012;SDS011;63567;49.956;20.130;2024-03-22T10:40:04;15.45;;;9.70;;
75012;SDS011;63567;49.956;20.130;2024-03-22T10:42:33;15.45;;;9.52;;
75012;SDS011;63567;49.956;20.130;2024-03-22T10:45:03;17.00;;;9.40;;
75012;SDS011;63567;49.956;20.130;2024-03-22T10:47:30;16.27;;;9.80;;
75012;SDS011;63567;49.956;20.130;2024-03-22T10:50:03;14.30;;;9.23;;
75012;SDS011;63567;49.956;20.130;2024-03-22T10:52:40;16.00;;;9.02;;
75012;SDS011;63567;49.956;20.130;2024-03-22T10:55:13;16.17;;;8.85;;
75012;SDS011;63567;49.956;20.130;2024-03-22T10:57:45;16.27;;;9.48;;
75012;SDS011;63567;49.956;20.130;2024-03-22T11:00:10;15.23;;;9.05;;
75012;SDS011;63567;49.956;20.130;2024-03-22T11:02:36;16.67;;;8.85;;
75012;SDS011;63567;49.956;20.130;2024-03-22T11:05:02;14.05;;;9.13;;
75012;SDS011;63567;49.956;20.130;2024-03-22T11:07:32;16.17;;;8.73;;
75012;SDS011;63567;49.956;20.130;2024-03-22T11:09:57;13.70;;;8.80;;
75012;SDS011;63567;49.956;20.130;2024-03-22T11:12:26;17.15;;;9.57;;
75012;SDS011;63567;49.956;20.130;2024-03-22T11:14:55;16.00;;;10.02;;
75012;SDS011;63567;49.956;20.130;2024-03-22T11:17:20;15.90;;;9.90;;
75012;SDS011;63567;49.956;20.130;2024-03-22T11:19:49;17.25;;;10.05;;
75012;SDS011;63567;49.956;20.130;2024-03-22T11:22:15;16.90;;;10.10;;
75012;SDS011;63567;49.956;20.130;2024-03-22T11:24:41;16.38;;;10.30;;
75012;SDS011;63567;49.956;20.130;2024-03-22T11:27:06;17.80;;;10.80;;
75012;SDS011;63567;49.956;20.130;2024-03-22T11:29:32;18.95;;;12.23;;
75012;SDS011;63567;49.956;20.130;2024-03-22T11:31:57;17.83;;;11.27;;
75012;SDS011;63567;49.956;20.130;2024-03-22T11:34:23;16.77;;;10.77;;
75012;SDS011;63567;49.956;20.130;2024-03-22T11:36:48;16.50;;;10.55;;
75012;SDS011;63567;49.956;20.130;2024-03-22T11:39:15;17.88;;;10.75;;
75012;SDS011;63567;49.956;20.130;2024-03-22T11:41:40;17.20;;;11.67;;
75012;SDS011;63567;49.956;20.130;2024-03-22T11:44:06;17.27;;;10.93;;
75012;SDS011;63567;49.956;20.130;2024-03-22T11:46:31;17.52;;;10.80;;
75012;SDS011;63567;49.956;20.130;2024-03-22T11:48:58;16.27;;;10.93;;
75012;SDS011;63567;49.956;20.130;2024-03-22T11:51:24;17.08;;;9.95;;
75012;SDS011;63567;49.956;20.130;2024-03-22T11:53:52;16.13;;;11.45;;
75012;SDS011;63567;49.956;20.130;2024-03-22T11:56:20;15.65;;;10.57;;
75012;SDS011;63567;49.956;20.130;2024-03-22T11:58:49;15.27;;;10.20;;
75012;SDS011;63567;49.956;20.130;2024-03-22T12:01:22;18.30;;;11.40;;
75012;SDS011;63567;49.956;20.130;2024-03-22T12:03:47;18.77;;;12.70;;
75012;SDS011;63567;49.956;20.130;2024-03-22T12:06:12;17.50;;;11.73;;
75012;SDS011;63567;49.956;20.130;2024-03-22T12:08:38;17.37;;;11.20;;
75012;SDS011;63567;49.956;20.130;2024-03-22T12:11:06;17.67;;;11.70;;
75012;SDS011;63567;49.956;20.130;2024-03-22T12:13:32;17.77;;;10.60;;
75012;SDS011;63567;49.956;20.130;2024-03-22T12:15:58;16.37;;;10.40;;
75012;SDS011;63567;49.956;20.130;2024-03-22T12:18:23;17.17;;;11.03;;
75012;SDS011;63567;49.956;20.130;2024-03-22T12:20:48;15.97;;;10.23;;
75012;SDS011;63567;49.956;20.130;2024-03-22T12:23:13;17.13;;;10.77;;
75012;SDS011;63567;49.956;20.130;2024-03-22T12:25:38;16.07;;;10.43;;
75012;SDS011;63567;49.956;20.130;2024-03-22T12:28:04;17.77;;;11.40;;
75012;SDS011;63567;49.956;20.130;2024-03-22T12:30:29;17.43;;;11.20;;
75012;SDS011;63567;49.956;20.130;2024-03-22T12:32:55;18.20;;;13.00;;
75012;SDS011;63567;49.956;20.130;2024-03-22T12:35:21;17.92;;;11.88;;
75012;SDS011;63567;49.956;20.130;2024-03-22T12:37:46;18.60;;;12.20;;
75012;SDS011;63567;49.956;20.130;2024-03-22T12:40:11;15.63;;;10.87;;
75012;SDS011;63567;49.956;20.130;2024-03-22T12:42:39;16.92;;;10.38;;
75012;SDS011;63567;49.956;20.130;2024-03-22T12:45:04;14.63;;;10.77;;
75012;SDS011;63567;49.956;20.130;2024-03-22T12:47:29;14.52;;;9.75;;
75012;SDS011;63567;49.956;20.130;2024-03-22T12:49:55;13.73;;;9.90;;
75012;SDS011;63567;49.956;20.130;2024-03-22T12:52:20;15.17;;;10.67;;
75012;SDS011;63567;49.956;20.130;2024-03-22T12:54:45;15.17;;;10.83;;
75012;SDS011;63567;49.956;20.130;2024-03-22T12:57:11;16.27;;;10.77;;
75012;SDS011;63567;49.956;20.130;2024-03-22T12:59:36;16.20;;;10.57;;
75012;SDS011;63567;49.956;20.130;2024-03-22T13:02:01;16.17;;;11.20;;
75012;SDS011;63567;49.956;20.130;2024-03-22T13:04:26;14.93;;;10.30;;
75012;SDS011;63567;49.956;20.130;2024-03-22T13:06:52;15.20;;;11.18;;
75012;SDS011;63567;49.956;20.130;2024-03-22T13:09:17;15.93;;;10.90;;
75012;SDS011;63567;49.956;20.130;2024-03-22T13:11:46;17.92;;;11.73;;
75012;SDS011;63567;49.956;20.130;2024-03-22T13:14:12;17.05;;;11.45;;
75012;SDS011;63567;49.956;20.130;2024-03-22T13:16:38;17.30;;;12.48;;
75012;SDS011;63567;49.956;20.130;2024-03-22T13:19:03;17.50;;;12.07;;
75012;SDS011;63567;49.956;20.130;2024-03-22T13:21:29;18.33;;;12.17;;
75012;SDS011;63567;49.956;20.130;2024-03-22T13:23:56;18.08;;;11.85;;
75012;SDS011;63567;49.956;20.130;2024-03-22T13:26:21;18.00;;;13.17;;
75012;SDS011;63567;49.956;20.130;2024-03-22T13:28:46;17.27;;;11.77;;
75012;SDS011;63567;49.956;20.130;2024-03-22T13:31:11;18.87;;;11.60;;
75012;SDS011;63567;49.956;20.130;2024-03-22T13:33:37;16.77;;;11.47;;
75012;SDS011;63567;49.956;20.130;2024-03-22T13:36:03;16.40;;;11.27;;
75012;SDS011;63567;49.956;20.130;2024-03-22T13:38:30;17.38;;;12.70;;
75012;SDS011;63567;49.956;20.130;2024-03-22T13:40:55;20.57;;;13.07;;
75012;SDS011;63567;49.956;20.130;2024-03-22T13:43:22;20.33;;;13.32;;
75012;SDS011;63567;49.956;20.130;2024-03-22T13:45:49;18.73;;;12.85;;
75012;SDS011;63567;49.956;20.130;2024-03-22T13:48:19;18.48;;;13.27;;
75012;SDS011;63567;49.956;20.130;2024-03-22T13:50:44;18.15;;;11.93;;
75012;SDS011;63567;49.956;20.130;2024-03-22T13:53:11;18.85;;;12.55;;
75012;SDS011;63567;49.956;20.130;2024-03-22T13:55:36;18.03;;;12.10;;
75012;SDS011;63567;49.956;20.130;2024-03-22T13:58:01;19.13;;;12.77;;
75012;SDS011;63567;49.956;20.130;2024-03-22T14:00:27;19.00;;;12.57;;
75012;SDS011;63567;49.956;20.130;2024-03-22T14:02:52;19.07;;;13.23;;